Time;durP1;ratioP1;P1;durP2;ratioP2;P2;SDS_P1;SDS_P2;PMS_P1;PMS_P2;Temp;Humidity;BMP_temperature;BMP_pressure;BME280_temperature;BME280_humidity;BME280_pressure;Samples;Min_cycle;Max_cycle;Signal;HPM_P1;HPM_P2
2021/01/15 00:02:00;;;;;;;9.43;4.70;;;-0.20;99.90;;;;;;461044;258;27480;-69
2021/01/15 00:04:01;;;;;;;5.62;4.45;;;-0.30;99.90;;;;;;469110;253;27557;-68
2021/01/15 00:06:05;;;;;;;7.32;4.95;;;-0.30;99.90;;;;;;460978;258;27961;-69
2021/01/15 00:08:03;;;;;;;6.40;4.60;;;-0.30;99.90;;;;;;468872;253;28116;-69
2021/01/15 00:10:05;;;;;;;8.07;5.12;;;-0.30;99.90;;;;;;461003;258;29092;-70
2021/01/15 00:12:06;;;;;;;6.15;5.18;;;-0.30;99.90;;;;;;469172;253;27468;-69
2021/01/15 00:14:07;;;;;;;6.37;4.35;;;-0.30;99.90;;;;;;461097;257;27587;-69
2021/01/15 00:16:08;;;;;;;5.45;4.80;;;-0.30;99.90;;;;;;469187;253;27487;-70
2021/01/15 00:18:10;;;;;;;6.00;5.00;;;-0.40;99.90;;;;;;461169;257;27543;-69
2021/01/15 00:20:11;;;;;;;6.43;4.40;;;-0.40;99.90;;;;;;469171;253;27491;-70
2021/01/15 00:22:12;;;;;;;7.72;4.53;;;-0.40;99.90;;;;;;461159;258;27848;-70
2021/01/15 00:24:13;;;;;;;4.75;3.45;;;-0.30;99.90;;;;;;469256;253;27579;-69
2021/01/15 00:26:15;;;;;;;7.43;4.00;;;-0.40;99.90;;;;;;461142;258;27914;-69
2021/01/15 00:28:16;;;;;;;5.00;4.37;;;-0.40;99.90;;;;;;469208;253;27980;-70
2021/01/15 00:30:17;;;;;;;5.28;4.72;;;-0.50;99.90;;;;;;461044;255;27931;-69
2021/01/15 00:32:18;;;;;;;6.20;4.20;;;-0.50;99.90;;;;;;468995;253;27510;-70
2021/01/15 00:34:20;;;;;;;6.80;3.97;;;-0.50;99.90;;;;;;461050;257;27498;-70
2021/01/15 00:36:21;;;;;;;6.45;4.35;;;-0.50;99.90;;;;;;469041;253;27570;-69
2021/01/15 00:38:22;;;;;;;5.20;3.83;;;-0.50;99.90;;;;;;461306;258;27528;-69
2021/01/15 00:40:23;;;;;;;5.28;4.30;;;-0.50;99.90;;;;;;469382;253;27460;-70
2021/01/15 00:42:25;;;;;;;5.28;4.60;;;-0.50;99.90;;;;;;461334;258;27459;-69
2021/01/15 00:44:26;;;;;;;8.55;4.03;;;-0.50;99.90;;;;;;469410;253;27537;-69
2021/01/15 00:46:31;;;;;;;4.32;3.40;;;-0.50;99.90;;;;;;461352;257;27923;-69
2021/01/15 00:48:28;;;;;;;5.85;4.18;;;-0.50;99.90;;;;;;469050;253;28043;-70
2021/01/15 00:50:30;;;;;;;7.12;3.80;;;-0.50;99.90;;;;;;461010;258;28073;-69
2021/01/15 00:52:31;;;;;;;7.47;3.90;;;-0.60;99.90;;;;;;469089;253;27567;-69
2021/01/15 00:54:32;;;;;;;8.60;4.15;;;-0.60;99.90;;;;;;460955;257;27503;-69
2021/01/15 00:56:33;;;;;;;4.22;3.80;;;-0.60;99.90;;;;;;469124;253;27443;-69
2021/01/15 00:58:35;;;;;;;4.60;3.78;;;-0.70;99.90;;;;;;461146;257;27592;-70
2021/01/15 01:00:36;;;;;;;5.30;4.53;;;-0.70;99.90;;;;;;469199;253;27452;-69
2021/01/15 01:02:37;;;;;;;4.65;3.67;;;-0.70;99.90;;;;;;461086;257;27406;-69
2021/01/15 01:04:38;;;;;;;5.25;4.03;;;-0.70;99.90;;;;;;469111;253;27472;-70
2021/01/15 01:06:40;;;;;;;4.07;3.50;;;-0.70;99.90;;;;;;461066;257;27904;-69
2021/01/15 01:08:41;;;;;;;4.60;3.37;;;-0.70;99.90;;;;;;469142;253;27939;-69
2021/01/15 01:10:42;;;;;;;6.10;3.55;;;-0.70;99.90;;;;;;461041;257;28996;-68
2021/01/15 01:12:43;;;;;;;6.70;3.65;;;-0.80;99.90;;;;;;469127;253;27548;-69
2021/01/15 01:14:45;;;;;;;4.35;3.35;;;-0.70;99.90;;;;;;461095;257;27608;-70
2021/01/15 01:16:46;;;;;;;6.05;4.00;;;-0.70;99.90;;;;;;469166;253;27433;-69
2021/01/15 01:18:47;;;;;;;4.15;3.70;;;-0.80;99.90;;;;;;461146;257;27490;-70
2021/01/15 01:20:48;;;;;;;7.03;3.70;;;-0.70;99.90;;;;;;469226;253;27560;-69
2021/01/15 01:22:50;;;;;;;5.65;3.62;;;-0.70;99.90;;;;;;461154;258;27517;-69
2021/01/15 01:24:51;;;;;;;6.95;3.50;;;-0.70;99.90;;;;;;469259;253;27564;-70
2021/01/15 01:26:52;;;;;;;4.32;3.92;;;-0.70;99.90;;;;;;461191;257;27955;-69
2021/01/15 01:28:54;;;;;;;5.10;3.97;;;-0.70;99.90;;;;;;469259;253;27956;-69
2021/01/15 01:30:55;;;;;;;4.10;3.47;;;-0.70;99.90;;;;;;461123;257;28996;-68
2021/01/15 01:32:57;;;;;;;4.15;3.60;;;-0.70;99.90;;;;;;469095;253;27611;-69
2021/01/15 01:34:57;;;;;;;3.95;3.60;;;-0.70;99.90;;;;;;461035;257;27491;-70
2021/01/15 01:36:59;;;;;;;4.50;3.20;;;-0.70;99.90;;;;;;469100;248;27475;-69
2021/01/15 01:39:00;;;;;;;7.30;4.10;;;-0.70;99.90;;;;;;461011;257;27569;-70
2021/01/15 01:41:01;;;;;;;5.55;3.45;;;-0.70;99.90;;;;;;469051;253;27580;-69
2021/01/15 01:43:02;;;;;;;4.93;3.55;;;-0.70;99.90;;;;;;461057;257;27483;-68
2021/01/15 01:45:04;;;;;;;3.92;3.53;;;-0.80;99.90;;;;;;469159;253;27472;-69
2021/01/15 01:47:05;;;;;;;3.80;3.30;;;-0.80;99.90;;;;;;461130;257;27983;-69
2021/01/15 01:49:06;;;;;;;5.30;3.65;;;-0.80;99.90;;;;;;469186;253;27996;-69
2021/01/15 01:51:07;;;;;;;3.35;3.05;;;-0.80;99.90;;;;;;460998;257;27981;-70
2021/01/15 01:53:09;;;;;;;5.47;3.80;;;-0.80;99.90;;;;;;469210;253;27479;-69
2021/01/15 01:55:10;;;;;;;3.90;3.20;;;-0.80;99.90;;;;;;461140;257;27506;-70
2021/01/15 01:57:11;;;;;;;8.00;3.75;;;-0.80;99.90;;;;;;469173;253;27549;-68
2021/01/15 01:59:12;;;;;;;3.10;2.78;;;-0.80;99.90;;;;;;461146;257;27518;-70
2021/01/15 02:01:14;;;;;;;3.87;3.20;;;-0.80;99.90;;;;;;468893;253;27580;-69
2021/01/15 02:03:15;;;;;;;3.53;2.80;;;-0.80;99.90;;;;;;460481;258;27504;-69
2021/01/15 02:05:16;;;;;;;4.45;3.42;;;-0.80;99.90;;;;;;469073;253;27568;-68
2021/01/15 02:07:17;;;;;;;8.38;3.05;;;-0.80;99.90;;;;;;461026;257;28043;-69
2021/01/15 02:09:19;;;;;;;3.67;3.10;;;-0.80;99.90;;;;;;469093;253;27968;-70
2021/01/15 02:11:20;;;;;;;5.70;3.15;;;-0.80;99.90;;;;;;460969;257;28097;-69
2021/01/15 02:13:21;;;;;;;3.85;3.55;;;-0.80;99.90;;;;;;469089;253;27552;-69
2021/01/15 02:15:22;;;;;;;6.07;3.40;;;-0.80;99.90;;;;;;461036;257;27600;-69
2021/01/15 02:17:24;;;;;;;4.05;3.62;;;-0.80;99.90;;;;;;469077;253;27491;-69
2021/01/15 02:19:25;;;;;;;5.18;3.67;;;-0.90;99.90;;;;;;461013;258;27618;-70
2021/01/15 02:21:26;;;;;;;3.65;3.03;;;-0.90;99.90;;;;;;469015;253;27566;-68
2021/01/15 02:23:27;;;;;;;5.35;3.72;;;-0.80;99.90;;;;;;460991;257;27562;-69
2021/01/15 02:25:29;;;;;;;3.97;3.50;;;-0.90;99.90;;;;;;469069;253;27500;-69
2021/01/15 02:27:30;;;;;;;4.85;3.50;;;-0.90;99.90;;;;;;461028;257;27978;-70
2021/01/15 02:29:31;;;;;;;6.40;3.20;;;-0.90;99.90;;;;;;468978;253;28027;-70
2021/01/15 02:31:32;;;;;;;6.75;3.42;;;-0.90;99.90;;;;;;461045;258;28034;-69
2021/01/15 02:33:34;;;;;;;3.80;3.25;;;-0.90;99.90;;;;;;469222;253;27559;-70
2021/01/15 02:35:35;;;;;;;5.80;3.37;;;-0.90;99.90;;;;;;461148;257;27459;-69
2021/01/15 02:37:36;;;;;;;4.47;3.03;;;-0.90;99.90;;;;;;469158;253;27502;-70
2021/01/15 02:39:37;;;;;;;3.83;3.15;;;-0.90;99.90;;;;;;461041;257;27855;-68
2021/01/15 02:41:39;;;;;;;3.20;2.90;;;-0.90;99.90;;;;;;469039;253;27499;-69
2021/01/15 02:43:40;;;;;;;5.65;3.10;;;-0.90;99.90;;;;;;461043;257;27950;-71
2021/01/15 02:45:41;;;;;;;3.72;3.42;;;-0.90;99.90;;;;;;469104;253;27439;-69
2021/01/15 02:47:42;;;;;;;3.37;3.08;;;-0.90;99.90;;;;;;461036;257;28037;-69
2021/01/15 02:49:44;;;;;;;3.70;3.03;;;-0.90;99.90;;;;;;469067;253;28033;-70
2021/01/15 02:51:45;;;;;;;3.08;2.78;;;-0.90;99.90;;;;;;460968;257;27996;-69
2021/01/15 02:53:46;;;;;;;3.70;3.22;;;-0.90;99.90;;;;;;469122;253;27495;-71
2021/01/15 02:55:47;;;;;;;3.60;3.25;;;-0.90;99.90;;;;;;461063;257;27589;-69
2021/01/15 02:57:49;;;;;;;3.40;3.10;;;-0.90;99.90;;;;;;469208;253;27599;-69
2021/01/15 02:59:50;;;;;;;3.60;3.15;;;-0.90;99.90;;;;;;461160;257;27844;-71
2021/01/15 03:01:51;;;;;;;4.00;3.15;;;-0.80;99.90;;;;;;469137;253;27447;-69
2021/01/15 03:03:52;;;;;;;4.93;3.30;;;-0.80;99.90;;;;;;461183;257;27602;-70
2021/01/15 03:05:54;;;;;;;3.08;2.83;;;-0.80;99.90;;;;;;469251;253;27437;-69
2021/01/15 03:07:55;;;;;;;3.35;3.05;;;-0.90;99.90;;;;;;461184;258;27971;-69
2021/01/15 03:09:56;;;;;;;3.75;2.75;;;-0.90;99.90;;;;;;469230;253;28403;-70
2021/01/15 03:11:57;;;;;;;3.22;2.97;;;-0.90;99.90;;;;;;460910;258;28035;-69
2021/01/15 03:13:59;;;;;;;3.10;2.80;;;-0.90;99.90;;;;;;468856;253;27491;-70
2021/01/15 03:16:00;;;;;;;3.15;2.80;;;-0.90;99.90;;;;;;460654;256;27476;-69
2021/01/15 03:18:01;;;;;;;4.87;3.35;;;-0.90;99.90;;;;;;469244;253;27483;-68
2021/01/15 03:20:02;;;;;;;3.22;2.90;;;-1.00;99.90;;;;;;461066;257;27909;-70
2021/01/15 03:22:04;;;;;;;3.28;2.97;;;-1.00;99.90;;;;;;469029;253;27433;-69
2021/01/15 03:24:05;;;;;;;3.10;2.80;;;-1.00;99.90;;;;;;461109;257;27628;-70
2021/01/15 03:26:07;;;;;;;3.20;2.85;;;-1.10;99.90;;;;;;469161;253;27432;-69
2021/01/15 03:28:07;;;;;;;3.47;3.10;;;-1.10;99.90;;;;;;460713;258;27966;-68
2021/01/15 03:30:09;;;;;;;3.45;3.15;;;-1.10;99.90;;;;;;468917;253;28714;-69
2021/01/15 03:32:10;;;;;;;3.08;2.80;;;-1.10;99.90;;;;;;461082;257;28857;-69
2021/01/15 03:34:11;;;;;;;3.53;3.22;;;-1.20;99.90;;;;;;469125;253;27557;-69
2021/01/15 03:36:12;;;;;;;3.33;3.03;;;-1.20;99.90;;;;;;460947;257;27582;-70
2021/01/15 03:38:14;;;;;;;4.18;3.40;;;-1.20;99.90;;;;;;469106;253;27555;-69
2021/01/15 03:40:15;;;;;;;6.82;3.62;;;-1.20;99.90;;;;;;460997;257;27491;-69
2021/01/15 03:42:16;;;;;;;3.97;3.53;;;-1.20;99.90;;;;;;469140;253;27479;-69
2021/01/15 03:44:17;;;;;;;7.12;3.83;;;-1.30;99.90;;;;;;461053;257;27663;-70
2021/01/15 03:46:19;;;;;;;4.47;4.07;;;-1.30;99.90;;;;;;469123;253;27564;-69
2021/01/15 03:48:23;;;;;;;4.97;4.25;;;-1.30;99.90;;;;;;461309;258;27948;-69
2021/01/15 03:50:21;;;;;;;9.30;4.40;;;-1.30;99.90;;;;;;468878;253;28956;-69
2021/01/15 03:52:23;;;;;;;5.47;4.55;;;-1.30;99.90;;;;;;461055;257;27963;-69
2021/01/15 03:54:24;;;;;;;6.45;4.47;;;-1.40;99.90;;;;;;469117;253;27475;-71
2021/01/15 03:56:25;;;;;;;6.65;4.97;;;-1.50;99.90;;;;;;461049;257;27510;-70
2021/01/15 03:58:26;;;;;;;8.07;4.65;;;-1.50;99.90;;;;;;469108;253;27483;-69
2021/01/15 04:00:28;;;;;;;10.48;5.15;;;-1.50;99.90;;;;;;460967;258;27530;-69
2021/01/15 04:02:29;;;;;;;5.85;4.70;;;-1.50;99.90;;;;;;469135;253;27551;-70
2021/01/15 04:04:30;;;;;;;7.85;5.20;;;-1.50;99.90;;;;;;461033;258;27533;-70
2021/01/15 04:06:31;;;;;;;6.87;5.55;;;-1.50;99.90;;;;;;469107;253;27483;-70
2021/01/15 04:08:33;;;;;;;8.82;5.60;;;-1.60;99.90;;;;;;461048;258;27977;-69
2021/01/15 04:10:34;;;;;;;6.20;4.90;;;-1.60;99.90;;;;;;469090;253;29100;-69
2021/01/15 04:12:35;;;;;;;11.43;5.47;;;-1.60;99.90;;;;;;461178;257;27495;-69
2021/01/15 04:14:36;;;;;;;10.32;5.78;;;-1.60;99.90;;;;;;469214;253;27539;-69
2021/01/15 04:16:38;;;;;;;5.22;4.72;;;-1.60;99.90;;;;;;461076;257;27482;-69
2021/01/15 04:18:39;;;;;;;8.68;5.70;;;-1.70;99.90;;;;;;468901;253;27551;-69
2021/01/15 04:20:40;;;;;;;5.80;5.30;;;-1.70;99.90;;;;;;460823;257;27554;-69
2021/01/15 04:22:41;;;;;;;7.22;5.20;;;-1.70;99.90;;;;;;469122;253;27495;-70
2021/01/15 04:24:43;;;;;;;6.40;5.18;;;-1.70;99.90;;;;;;461048;257;27414;-69
2021/01/15 04:26:44;;;;;;;7.78;6.32;;;-1.70;99.90;;;;;;469102;253;27947;-69
2021/01/15 04:28:45;;;;;;;6.45;5.05;;;-1.80;99.90;;;;;;461068;257;28145;-69
2021/01/15 04:30:46;;;;;;;6.25;5.32;;;-1.80;99.90;;;;;;469035;253;27965;-68
2021/01/15 04:32:48;;;;;;;5.90;5.05;;;-1.80;99.90;;;;;;461103;257;27517;-69
2021/01/15 04:34:49;;;;;;;6.50;5.45;;;-1.80;99.90;;;;;;469132;253;27551;-69
2021/01/15 04:36:50;;;;;;;7.37;5.93;;;-1.80;99.90;;;;;;461083;257;27514;-69
2021/01/15 04:38:51;;;;;;;6.65;5.95;;;-1.80;99.90;;;;;;469276;253;27544;-72
2021/01/15 04:40:53;;;;;;;6.68;5.43;;;-1.80;99.90;;;;;;461204;257;27479;-68
2021/01/15 04:42:54;;;;;;;7.20;5.68;;;-1.80;99.90;;;;;;469258;253;27507;-69
2021/01/15 04:44:55;;;;;;;6.75;5.55;;;-1.80;99.90;;;;;;461204;257;27575;-68
2021/01/15 04:46:56;;;;;;;6.78;5.43;;;-1.80;99.90;;;;;;469260;253;27889;-68
2021/01/15 04:48:58;;;;;;;5.93;5.10;;;-1.80;99.90;;;;;;461209;257;27987;-70
2021/01/15 04:50:59;;;;;;;6.87;5.22;;;-1.90;99.90;;;;;;469146;253;29144;-68
2021/01/15 04:53:00;;;;;;;6.82;5.12;;;-1.90;99.90;;;;;;460600;257;27496;-70
2021/01/15 04:55:01;;;;;;;7.10;5.07;;;-1.80;99.90;;;;;;468774;253;27495;-69
2021/01/15 04:57:03;;;;;;;8.52;4.97;;;-1.80;99.90;;;;;;460985;257;27472;-68
2021/01/15 04:59:04;;;;;;;5.82;5.10;;;-1.80;99.90;;;;;;469042;249;27548;-69
2021/01/15 05:01:05;;;;;;;5.93;5.00;;;-1.80;99.90;;;;;;460625;257;27551;-69
2021/01/15 05:03:06;;;;;;;7.70;5.00;;;-1.80;99.90;;;;;;469189;253;27552;-69
2021/01/15 05:05:08;;;;;;;6.43;4.65;;;-1.80;99.90;;;;;;461024;257;27656;-70
2021/01/15 05:07:09;;;;;;;5.28;4.75;;;-1.80;99.90;;;;;;469088;253;28012;-69
2021/01/15 05:09:10;;;;;;;5.50;4.53;;;-1.90;99.90;;;;;;461055;258;27960;-70
2021/01/15 05:11:11;;;;;;;6.47;5.07;;;-1.80;99.90;;;;;;469064;253;28973;-68
2021/01/15 05:13:13;;;;;;;5.30;4.47;;;-1.90;99.90;;;;;;461019;257;27518;-69
2021/01/15 05:15:14;;;;;;;4.82;4.35;;;-1.90;99.90;;;;;;469091;253;27547;-69
2021/01/15 05:17:15;;;;;;;7.72;5.10;;;-1.80;99.90;;;;;;461008;257;27565;-69
2021/01/15 05:19:16;;;;;;;5.35;4.80;;;-1.90;99.90;;;;;;468647;253;27463;-69
2021/01/15 05:21:18;;;;;;;8.52;5.10;;;-1.90;99.90;;;;;;460957;257;27463;-69
2021/01/15 05:23:19;;;;;;;8.45;4.87;;;-1.90;99.90;;;;;;469040;253;27476;-69
2021/01/15 05:25:20;;;;;;;7.57;4.95;;;-1.90;99.90;;;;;;461004;258;27571;-69
2021/01/15 05:27:40;;;;;;;5.00;4.37;;;-1.90;99.90;;;;;;469105;253;27942;-69
2021/01/15 05:29:41;;;;;;;6.72;4.82;;;-1.90;99.90;;;;;;461026;257;27618;-70
2021/01/15 05:31:42;;;;;;;8.68;5.72;;;-1.90;99.90;;;;;;469051;253;27472;-69
2021/01/15 05:33:43;;;;;;;7.30;4.78;;;-1.90;99.90;;;;;;461040;258;27527;-69
2021/01/15 05:35:45;;;;;;;6.53;5.20;;;-1.90;99.90;;;;;;469096;253;27567;-69
2021/01/15 05:37:46;;;;;;;8.15;5.45;;;-1.90;99.90;;;;;;461042;257;27491;-69
2021/01/15 05:39:47;;;;;;;5.32;4.82;;;-1.90;99.90;;;;;;469085;253;27947;-69
2021/01/15 05:41:48;;;;;;;6.32;5.25;;;-2.00;99.90;;;;;;460967;257;27982;-68
2021/01/15 05:43:50;;;;;;;5.00;4.50;;;-1.90;99.90;;;;;;476844;244;27909;-69
2021/01/15 05:45:51;;;;;;;5.93;4.70;;;-1.90;99.90;;;;;;478585;248;27473;-69
2021/01/15 05:47:52;;;;;;;9.90;5.90;;;-1.90;99.90;;;;;;478644;248;27462;-70
2021/01/15 05:49:53;;;;;;;7.37;5.10;;;-1.90;99.90;;;;;;478669;248;27482;-68
2021/01/15 05:51:55;;;;;;;7.70;5.97;;;-1.90;99.90;;;;;;478663;248;27422;-69
2021/01/15 05:53:56;;;;;;;11.52;6.40;;;-1.80;99.90;;;;;;478677;248;27467;-68
2021/01/15 05:55:57;;;;;;;7.37;4.95;;;-1.80;99.90;;;;;;478640;248;27448;-70
2021/01/15 05:57:59;;;;;;;7.57;5.10;;;-1.90;99.90;;;;;;478220;248;27616;-70
2021/01/15 06:00:00;;;;;;;8.25;5.75;;;-1.90;99.90;;;;;;478496;248;28047;-70
2021/01/15 06:02:01;;;;;;;9.30;5.32;;;-2.00;99.90;;;;;;478379;248;29163;-69
2021/01/15 06:04:02;;;;;;;6.43;4.93;;;-1.90;99.90;;;;;;478501;248;28659;-69
2021/01/15 06:06:04;;;;;;;6.03;4.45;;;-2.00;99.90;;;;;;478542;248;27434;-69
2021/01/15 06:08:05;;;;;;;7.62;4.75;;;-2.10;99.90;;;;;;478581;248;27533;-70
2021/01/15 06:10:06;;;;;;;5.45;4.45;;;-2.00;99.90;;;;;;478577;248;27506;-69
2021/01/15 06:12:07;;;;;;;7.15;5.60;;;-2.00;99.90;;;;;;478609;248;27441;-69
2021/01/15 06:14:09;;;;;;;5.25;4.75;;;-2.00;99.90;;;;;;478648;248;27830;-71
2021/01/15 06:16:10;;;;;;;7.95;5.00;;;-2.00;99.90;;;;;;478728;248;27491;-68
2021/01/15 06:18:11;;;;;;;7.90;5.00;;;-2.00;99.90;;;;;;478781;248;27557;-69
2021/01/15 06:20:12;;;;;;;8.38;5.05;;;-2.00;99.90;;;;;;478731;248;27509;-68
2021/01/15 06:22:14;;;;;;;9.57;5.45;;;-2.00;99.90;;;;;;478797;248;28987;-69
2021/01/15 06:24:15;;;;;;;10.00;4.93;;;-2.00;99.90;;;;;;478510;248;29430;-70
2021/01/15 06:26:16;;;;;;;6.55;5.00;;;-2.00;99.90;;;;;;477999;248;27426;-69
2021/01/15 06:28:17;;;;;;;5.90;5.30;;;-2.10;99.90;;;;;;478451;248;27467;-69
2021/01/15 06:30:19;;;;;;;10.00;5.07;;;-2.10;99.90;;;;;;478470;248;27546;-68
2021/01/15 06:32:20;;;;;;;6.85;5.25;;;-2.10;99.90;;;;;;478555;248;27426;-68
2021/01/15 06:34:21;;;;;;;6.85;5.12;;;-2.10;99.90;;;;;;478585;248;27462;-70
2021/01/15 06:36:22;;;;;;;6.68;5.43;;;-2.10;99.90;;;;;;478606;248;27418;-68
2021/01/15 06:38:24;;;;;;;7.97;5.65;;;-2.10;99.90;;;;;;478567;248;27935;-69
2021/01/15 06:40:25;;;;;;;9.68;5.90;;;-2.10;99.90;;;;;;478549;248;27917;-70
2021/01/15 06:42:26;;;;;;;7.72;5.00;;;-2.10;99.90;;;;;;478588;248;29003;-69
2021/01/15 06:44:27;;;;;;;6.05;5.40;;;-2.10;99.90;;;;;;478614;248;27446;-68
2021/01/15 06:46:30;;;;;;;11.82;6.78;;;-2.00;99.90;;;;;;478590;248;27435;-68
2021/01/15 06:48:30;;;;;;;10.68;6.35;;;-2.10;99.90;;;;;;478474;248;27446;-69
2021/01/15 06:50:31;;;;;;;11.88;6.30;;;-2.10;99.90;;;;;;478524;248;27540;-70
2021/01/15 06:52:32;;;;;;;10.52;6.65;;;-2.00;99.90;;;;;;478580;248;27525;-68
2021/01/15 06:54:34;;;;;;;9.48;6.70;;;-2.00;99.90;;;;;;477980;248;27554;-69
2021/01/15 06:56:35;;;;;;;10.63;6.65;;;-2.00;99.90;;;;;;478561;248;28784;-69
2021/01/15 06:58:36;;;;;;;10.02;6.18;;;-2.00;99.90;;;;;;478574;248;29019;-68
2021/01/15 07:00:37;;;;;;;9.77;6.35;;;-2.00;99.90;;;;;;478559;248;27533;-69
2021/01/15 07:02:39;;;;;;;8.50;6.53;;;-2.00;99.90;;;;;;478470;248;27470;-69
2021/01/15 07:04:40;;;;;;;6.87;5.87;;;-2.00;99.90;;;;;;478598;248;27525;-69
2021/01/15 07:06:41;;;;;;;10.60;6.30;;;-2.00;99.90;;;;;;478608;248;27476;-70
2021/01/15 07:08:42;;;;;;;11.75;6.70;;;-2.10;99.90;;;;;;478644;248;27836;-70
2021/01/15 07:10:46;;;;;;;9.32;6.50;;;-2.00;99.90;;;;;;478587;248;27458;-68
2021/01/15 07:12:45;;;;;;;10.15;6.82;;;-2.00;99.90;;;;;;478524;248;27970;-69
2021/01/15 07:14:47;;;;;;;8.32;6.25;;;-2.10;99.90;;;;;;478759;248;27855;-69
2021/01/15 07:16:47;;;;;;;12.10;7.15;;;-2.00;99.90;;;;;;478706;248;27927;-69
2021/01/15 07:18:49;;;;;;;8.63;6.30;;;-2.00;99.90;;;;;;478670;248;27448;-69
2021/01/15 07:20:50;;;;;;;10.27;7.37;;;-2.00;99.90;;;;;;478307;248;27455;-69
2021/01/15 07:22:51;;;;;;;11.10;7.20;;;-2.00;99.90;;;;;;477974;248;27556;-68
2021/01/15 07:24:52;;;;;;;9.88;6.22;;;-2.00;99.90;;;;;;478407;248;27426;-68
2021/01/15 07:26:54;;;;;;;15.02;6.82;;;-2.10;99.90;;;;;;478610;248;27502;-69
2021/01/15 07:28:57;;;;;;;12.15;6.90;;;-2.00;99.90;;;;;;478610;248;27453;-69
2021/01/15 07:30:56;;;;;;;10.00;7.37;;;-2.00;99.90;;;;;;478423;248;27923;-69
2021/01/15 07:32:58;;;;;;;9.85;6.60;;;-2.00;99.90;;;;;;478644;248;29081;-71
2021/01/15 07:34:59;;;;;;;10.50;7.18;;;-2.00;99.90;;;;;;478679;248;29074;-69
2021/01/15 07:37:00;;;;;;;8.32;6.68;;;-2.00;99.90;;;;;;478678;248;27454;-69
2021/01/15 07:39:01;;;;;;;7.82;6.60;;;-1.90;99.90;;;;;;478675;248;27525;-68
2021/01/15 07:41:02;;;;;;;11.18;8.05;;;-1.90;99.90;;;;;;478671;248;27450;-68
2021/01/15 07:43:04;;;;;;;12.60;7.07;;;-1.80;99.90;;;;;;478698;248;27545;-69
2021/01/15 07:45:05;;;;;;;9.48;7.18;;;-1.90;99.90;;;;;;478712;248;27530;-68
2021/01/15 07:47:11;;;;;;;8.27;6.32;;;-1.90;99.90;;;;;;478726;248;27470;-69
2021/01/15 07:49:08;;;;;;;11.55;7.43;;;-1.80;99.90;;;;;;478344;248;28422;-69
2021/01/15 07:51:09;;;;;;;8.93;7.00;;;-1.80;99.90;;;;;;478731;248;27969;-68
2021/01/15 07:53:10;;;;;;;8.65;6.60;;;-1.80;99.90;;;;;;478719;248;27939;-69
2021/01/15 07:55:11;;;;;;;14.02;7.10;;;-1.80;99.90;;;;;;478668;248;27450;-68
2021/01/15 07:57:13;;;;;;;11.27;7.60;;;-1.90;99.90;;;;;;478480;248;27539;-69
2021/01/15 07:59:14;;;;;;;7.68;6.37;;;-1.90;99.90;;;;;;478327;248;27488;-70
2021/01/15 08:01:16;;;;;;;9.85;7.00;;;-1.90;99.90;;;;;;478226;248;27502;-68
2021/01/15 08:03:16;;;;;;;8.32;6.35;;;-1.90;99.90;;;;;;478700;248;27461;-69
2021/01/15 08:05:18;;;;;;;7.28;6.07;;;-1.90;99.90;;;;;;478721;248;27406;-68
2021/01/15 08:07:19;;;;;;;8.73;6.93;;;-1.80;99.90;;;;;;478676;248;27983;-68
2021/01/15 08:09:20;;;;;;;9.32;7.10;;;-1.90;99.90;;;;;;478669;248;28039;-69
2021/01/15 08:11:21;;;;;;;9.45;6.37;;;-1.90;99.90;;;;;;478591;248;29025;-69
2021/01/15 08:13:23;;;;;;;9.48;6.60;;;-1.90;99.90;;;;;;478611;248;27446;-70
2021/01/15 08:15:24;;;;;;;10.75;6.25;;;-1.90;99.90;;;;;;478596;248;27543;-68
2021/01/15 08:17:25;;;;;;;14.35;6.57;;;-1.90;99.90;;;;;;478599;248;27461;-69
2021/01/15 08:19:26;;;;;;;8.70;7.03;;;-1.80;99.90;;;;;;478618;248;27484;-69
2021/01/15 08:21:28;;;;;;;10.32;6.07;;;-1.80;99.90;;;;;;478569;248;27439;-68
2021/01/15 08:23:29;;;;;;;9.90;6.87;;;-1.80;99.90;;;;;;478584;248;27466;-69
2021/01/15 08:25:30;;;;;;;10.23;6.80;;;-1.80;99.90;;;;;;478603;248;27959;-70
2021/01/15 08:27:32;;;;;;;8.80;6.70;;;-1.80;99.90;;;;;;478607;248;29147;-69
2021/01/15 08:29:34;;;;;;;10.52;6.68;;;-1.80;99.90;;;;;;478545;248;28736;-69
2021/01/15 08:31:34;;;;;;;12.13;6.30;;;-1.80;99.90;;;;;;478407;248;27437;-69
2021/01/15 08:33:35;;;;;;;9.75;7.30;;;-1.80;99.90;;;;;;478603;248;27462;-70
2021/01/15 08:35:36;;;;;;;7.32;6.37;;;-1.80;99.90;;;;;;478597;248;27533;-69
2021/01/15 08:37:39;;;;;;;10.80;6.72;;;-1.90;99.90;;;;;;478590;248;27494;-69
2021/01/15 08:39:39;;;;;;;11.65;7.15;;;-1.90;99.90;;;;;;478510;248;27966;-69
2021/01/15 08:41:40;;;;;;;9.50;6.25;;;-1.90;99.90;;;;;;478577;248;27459;-69
2021/01/15 08:43:41;;;;;;;13.88;7.15;;;-1.90;99.90;;;;;;478592;248;27937;-69
2021/01/15 08:45:43;;;;;;;12.68;7.72;;;-1.90;99.90;;;;;;478345;248;28035;-69
2021/01/15 08:47:44;;;;;;;9.60;6.93;;;-1.90;99.90;;;;;;477876;249;27548;-69
2021/01/15 08:49:45;;;;;;;8.45;6.15;;;-1.80;99.90;;;;;;477916;249;27469;-68
2021/01/15 08:51:46;;;;;;;9.75;6.70;;;-1.90;99.90;;;;;;477888;249;27556;-70
2021/01/15 08:54:06;;;;;;;9.65;6.28;;;-1.90;99.90;;;;;;477930;248;27470;-70
2021/01/15 08:56:07;;;;;;;7.75;5.85;;;-1.90;99.90;;;;;;477915;249;27627;-69
2021/01/15 08:58:08;;;;;;;9.48;6.30;;;-1.90;99.90;;;;;;477993;249;27563;-69
2021/01/15 09:00:10;;;;;;;8.35;6.28;;;-1.90;99.90;;;;;;478022;249;27427;-69
2021/01/15 09:02:11;;;;;;;8.02;6.20;;;-1.80;99.90;;;;;;478037;249;28050;-69
2021/01/15 09:04:12;;;;;;;8.43;6.82;;;-1.80;99.90;;;;;;478016;249;28026;-69
2021/01/15 09:06:14;;;;;;;7.00;5.70;;;-1.80;99.90;;;;;;477926;249;27944;-68
2021/01/15 09:08:15;;;;;;;7.12;5.50;;;-1.80;99.90;;;;;;477850;248;27674;-70
2021/01/15 09:10:16;;;;;;;7.65;6.28;;;-1.70;99.90;;;;;;477914;249;27427;-69
2021/01/15 09:12:17;;;;;;;9.30;6.05;;;-1.70;99.90;;;;;;477935;249;27689;-69
2021/01/15 09:14:18;;;;;;;9.23;6.10;;;-1.70;99.90;;;;;;477963;249;27452;-69
2021/01/15 09:16:21;;;;;;;9.93;6.68;;;-1.70;99.90;;;;;;477988;249;27579;-69
2021/01/15 09:18:21;;;;;;;11.25;6.22;;;-1.70;99.90;;;;;;477969;249;27483;-70
2021/01/15 09:20:22;;;;;;;10.55;6.85;;;-1.60;99.90;;;;;;478015;249;27431;-69
2021/01/15 09:22:26;;;;;;;12.20;6.85;;;-1.60;99.90;;;;;;478067;249;28041;-69
2021/01/15 09:24:25;;;;;;;7.75;6.70;;;-1.40;99.90;;;;;;477872;249;28848;-68
2021/01/15 09:26:26;;;;;;;9.30;6.60;;;-1.40;99.90;;;;;;478118;249;27415;-69
2021/01/15 09:28:27;;;;;;;11.23;7.22;;;-1.40;99.90;;;;;;478126;247;27651;-69
2021/01/15 09:30:28;;;;;;;8.05;6.07;;;-1.30;99.90;;;;;;478013;244;27503;-68
2021/01/15 09:32:30;;;;;;;13.40;7.28;;;-1.20;99.90;;;;;;477418;249;27886;-69
2021/01/15 09:34:31;;;;;;;9.77;6.90;;;-1.20;99.90;;;;;;477347;249;27551;-71
2021/01/15 09:36:32;;;;;;;7.68;6.22;;;-1.20;99.90;;;;;;477762;249;27603;-68
2021/01/15 09:38:33;;;;;;;11.12;6.87;;;-1.10;99.90;;;;;;477896;249;27472;-69
2021/01/15 09:40:35;;;;;;;13.05;7.30;;;-1.20;99.90;;;;;;477695;249;27963;-69
2021/01/15 09:42:36;;;;;;;11.30;6.80;;;-1.10;99.90;;;;;;477920;249;29197;-68
2021/01/15 09:44:37;;;;;;;9.90;6.80;;;-1.10;99.90;;;;;;477943;249;27475;-70
2021/01/15 09:46:38;;;;;;;9.35;5.95;;;-1.10;99.90;;;;;;477919;249;27543;-69
2021/01/15 09:48:40;;;;;;;11.35;6.82;;;-1.00;99.90;;;;;;477973;249;27538;-69
2021/01/15 09:50:41;;;;;;;9.95;6.82;;;-1.00;99.90;;;;;;477890;249;28012;-68
2021/01/15 09:52:42;;;;;;;6.95;6.05;;;-1.00;99.90;;;;;;477938;249;27499;-68
2021/01/15 09:54:43;;;;;;;10.68;6.30;;;-1.00;99.90;;;;;;477934;249;27459;-69
2021/01/15 09:56:45;;;;;;;7.37;6.50;;;-1.00;99.90;;;;;;477948;249;27903;-68
2021/01/15 09:58:46;;;;;;;9.10;7.45;;;-0.90;99.90;;;;;;477975;249;28016;-69
2021/01/15 10:00:48;;;;;;;11.57;7.50;;;-0.90;99.90;;;;;;477876;249;29095;-71
2021/01/15 10:02:48;;;;;;;8.95;6.75;;;-0.80;99.90;;;;;;477890;249;27634;-69
2021/01/15 10:04:50;;;;;;;7.00;5.97;;;-0.80;99.90;;;;;;477940;249;27552;-73
2021/01/15 10:06:51;;;;;;;9.20;6.65;;;-0.80;99.90;;;;;;477914;249;27467;-68
2021/01/15 10:08:52;;;;;;;9.27;6.65;;;-0.80;99.90;;;;;;477905;249;27908;-68
2021/01/15 10:10:53;;;;;;;9.23;6.30;;;-0.70;99.90;;;;;;477850;249;27575;-69
2021/01/15 10:12:55;;;;;;;7.80;6.15;;;-0.60;99.90;;;;;;477911;249;27531;-69
2021/01/15 10:14:56;;;;;;;8.20;6.05;;;-0.60;99.90;;;;;;477925;249;27456;-68
2021/01/15 10:16:57;;;;;;;9.25;6.70;;;-0.50;99.90;;;;;;477910;249;28767;-68
2021/01/15 10:18:58;;;;;;;6.82;6.12;;;-0.40;99.90;;;;;;477950;249;28602;-68
2021/01/15 10:21:00;;;;;;;9.23;6.37;;;-0.40;99.90;;;;;;477876;249;29035;-69
2021/01/15 10:23:01;;;;;;;8.68;6.50;;;-0.40;99.90;;;;;;477947;249;27462;-70
2021/01/15 10:25:02;;;;;;;7.07;5.85;;;-0.40;99.90;;;;;;477971;249;27511;-69
2021/01/15 10:27:03;;;;;;;8.27;5.85;;;-0.30;99.90;;;;;;478042;249;27527;-69
2021/01/15 10:29:06;;;;;;;6.75;5.47;;;-0.20;99.90;;;;;;478072;249;27427;-68
2021/01/15 10:31:06;;;;;;;10.00;6.55;;;-0.20;99.90;;;;;;477900;249;27459;-69